sensor_id;sensor_type;location;lat;lon;timestamp;pressure;altitude;pressure_sealevel;temperature
64790;BMP280;51223;51.816;5.862;2022-08-01T00:01:25;101610.00;;;25.08
64790;BMP280;51223;51.816;5.862;2022-08-01T00:03:51;101606.13;;;25.39
64790;BMP280;51223;51.816;5.862;2022-08-01T00:06:16;101605.88;;;25.65
64790;BMP280;51223;51.816;5.862;2022-08-01T00:08:42;101600.88;;;25.76
64790;BMP280;51223;51.816;5.862;2022-08-01T00:11:08;101600.38;;;25.56
64790;BMP280;51223;51.816;5.862;2022-08-01T00:13:35;101609.00;;;25.28
64790;BMP280;51223;51.816;5.862;2022-08-01T00:16:01;101605.06;;;25.70
64790;BMP280;51223;51.816;5.862;2022-08-01T00:18:27;101615.78;;;25.42
64790;BMP280;51223;51.816;5.862;2022-08-01T00:20:52;101614.22;;;25.68
64790;BMP280;51223;51.816;5.862;2022-08-01T00:23:18;101620.75;;;25.36
64790;BMP280;51223;51.816;5.862;2022-08-01T00:25:44;101621.16;;;24.73
64790;BMP280;51223;51.816;5.862;2022-08-01T00:28:10;101616.28;;;25.12
64790;BMP280;51223;51.816;5.862;2022-08-01T00:30:38;101603.78;;;25.60
64790;BMP280;51223;51.816;5.862;2022-08-01T00:33:04;101610.56;;;25.23
64790;BMP280;51223;51.816;5.862;2022-08-01T00:35:33;101609.22;;;25.69
64790;BMP280;51223;51.816;5.862;2022-08-01T00:38:01;101617.06;;;24.96
64790;BMP280;51223;51.816;5.862;2022-08-01T00:40:29;101611.34;;;25.29
64790;BMP280;51223;51.816;5.862;2022-08-01T00:42:55;101619.94;;;25.35
64790;BMP280;51223;51.816;5.862;2022-08-01T00:45:21;101609.53;;;25.21
64790;BMP280;51223;51.816;5.862;2022-08-01T00:47:47;101609.22;;;25.69
64790;BMP280;51223;51.816;5.862;2022-08-01T00:50:13;101615.78;;;25.14
64790;BMP280;51223;51.816;5.862;2022-08-01T00:52:40;101608.03;;;24.50
64790;BMP280;51223;51.816;5.862;2022-08-01T00:55:08;101613.22;;;24.46
64790;BMP280;51223;51.816;5.862;2022-08-01T00:57:34;101618.16;;;25.38
64790;BMP280;51223;51.816;5.862;2022-08-01T01:00:00;101613.94;;;25.72
64790;BMP280;51223;51.816;5.862;2022-08-01T01:02:26;101616.81;;;25.11
64790;BMP280;51223;51.816;5.862;2022-08-01T01:04:52;101629.09;;;25.22
64790;BMP280;51223;51.816;5.862;2022-08-01T01:07:50;101613.44;;;25.46
64790;BMP280;51223;51.816;5.862;2022-08-01T01:10:32;101617.13;;;24.37
64790;BMP280;51223;51.816;5.862;2022-08-01T01:13:32;101622.56;;;23.93
64790;BMP280;51223;51.816;5.862;2022-08-01T01:16:13;101618.50;;;23.36
64790;BMP280;51223;51.816;5.862;2022-08-01T01:18:55;101618.34;;;24.25
64790;BMP280;51223;51.816;5.862;2022-08-01T01:26:45;101629.44;;;24.60
64790;BMP280;51223;51.816;5.862;2022-08-01T01:29:35;101619.88;;;23.47
64790;BMP280;51223;51.816;5.862;2022-08-01T01:32:06;101623.16;;;23.97
64790;BMP280;51223;51.816;5.862;2022-08-01T01:34:37;101617.59;;;24.30
64790;BMP280;51223;51.816;5.862;2022-08-01T01:37:08;101620.19;;;23.54
64790;BMP280;51223;51.816;5.862;2022-08-01T01:39:35;101622.88;;;24.37
64790;BMP280;51223;51.816;5.862;2022-08-01T01:42:04;101622.66;;;24.52
64790;BMP280;51223;51.816;5.862;2022-08-01T01:44:31;101623.16;;;24.50
64790;BMP280;51223;51.816;5.862;2022-08-01T01:46:59;101620.47;;;23.88
64790;BMP280;51223;51.816;5.862;2022-08-01T01:49:27;101622.66;;;24.52
64790;BMP280;51223;51.816;5.862;2022-08-01T01:51:55;101622.72;;;24.74
64790;BMP280;51223;51.816;5.862;2022-08-01T01:54:23;101613.69;;;25.14
64790;BMP280;51223;51.816;5.862;2022-08-01T01:56:50;101621.00;;;25.26
64790;BMP280;51223;51.816;5.862;2022-08-01T01:59:21;101612.09;;;24.97
64790;BMP280;51223;51.816;5.862;2022-08-01T02:01:51;101619.41;;;25.03
64790;BMP280;51223;51.816;5.862;2022-08-01T02:04:20;101609.50;;;25.43
64790;BMP280;51223;51.816;5.862;2022-08-01T02:06:46;101611.31;;;25.13
64790;BMP280;51223;51.816;5.862;2022-08-01T02:09:20;101615.03;;;25.24
64790;BMP280;51223;51.816;5.862;2022-08-01T02:11:50;101619.88;;;23.78
64790;BMP280;51223;51.816;5.862;2022-08-01T02:14:19;101630.50;;;23.41
64790;BMP280;51223;51.816;5.862;2022-08-01T02:16:50;101628.91;;;24.02
64790;BMP280;51223;51.816;5.862;2022-08-01T02:19:17;101624.13;;;23.88
64790;BMP280;51223;51.816;5.862;2022-08-01T02:21:47;101619.31;;;24.70
64790;BMP280;51223;51.816;5.862;2022-08-01T02:24:42;101623.72;;;24.60
64790;BMP280;51223;51.816;5.862;2022-08-01T02:27:15;101619.13;;;24.85
64790;BMP280;51223;51.816;5.862;2022-08-01T02:29:47;101615.41;;;24.73
64790;BMP280;51223;51.816;5.862;2022-08-01T02:32:22;101626.69;;;24.88
64790;BMP280;51223;51.816;5.862;2022-08-01T02:34:51;101609.88;;;24.53
64790;BMP280;51223;51.816;5.862;2022-08-01T02:37:18;101614.31;;;24.54
64790;BMP280;51223;51.816;5.862;2022-08-01T02:39:48;101616.97;;;24.09
64790;BMP280;51223;51.816;5.862;2022-08-01T02:42:18;101619.75;;;23.61
64790;BMP280;51223;51.816;5.862;2022-08-01T02:44:44;101613.06;;;24.71
64790;BMP280;51223;51.816;5.862;2022-08-01T02:47:12;101611.59;;;23.85
64790;BMP280;51223;51.816;5.862;2022-08-01T02:49:42;101615.41;;;24.67
64790;BMP280;51223;51.816;5.862;2022-08-01T02:52:17;101616.44;;;24.64
64790;BMP280;51223;51.816;5.862;2022-08-01T02:54:44;101619.06;;;24.73
64790;BMP280;51223;51.816;5.862;2022-08-01T02:57:14;101615.22;;;24.23
64790;BMP280;51223;51.816;5.862;2022-08-01T02:59:42;101622.53;;;23.87
64790;BMP280;51223;51.816;5.862;2022-08-01T03:02:09;101627.56;;;23.61
64790;BMP280;51223;51.816;5.862;2022-08-01T03:04:36;101617.41;;;24.45
64790;BMP280;51223;51.816;5.862;2022-08-01T03:07:06;101620.66;;;24.21
64790;BMP280;51223;51.816;5.862;2022-08-01T03:09:37;101623.91;;;24.40
64790;BMP280;51223;51.816;5.862;2022-08-01T03:12:06;101627.81;;;24.37
64790;BMP280;51223;51.816;5.862;2022-08-01T03:14:36;101621.69;;;24.18
64790;BMP280;51223;51.816;5.862;2022-08-01T03:17:07;101621.50;;;23.22
64790;BMP280;51223;51.816;5.862;2022-08-01T03:19:34;101622.28;;;24.27
64790;BMP280;51223;51.816;5.862;2022-08-01T03:22:01;101620.09;;;24.70
64790;BMP280;51223;51.816;5.862;2022-08-01T03:24:33;101628.63;;;24.00
64790;BMP280;51223;51.816;5.862;2022-08-01T03:26:59;101626.81;;;23.66
64790;BMP280;51223;51.816;5.862;2022-08-01T03:29:27;101622.00;;;24.31
64790;BMP280;51223;51.816;5.862;2022-08-01T03:31:53;101626.44;;;23.84
64790;BMP280;51223;51.816;5.862;2022-08-01T03:34:20;101629.53;;;23.80
64790;BMP280;51223;51.816;5.862;2022-08-01T03:36:50;101625.34;;;23.45
64790;BMP280;51223;51.816;5.862;2022-08-01T03:39:21;101619.22;;;24.37
64790;BMP280;51223;51.816;5.862;2022-08-01T03:41:56;101620.97;;;24.28
64790;BMP280;51223;51.816;5.862;2022-08-01T03:44:26;101621.44;;;24.80
64790;BMP280;51223;51.816;5.862;2022-08-01T03:47:02;101628.50;;;23.52
64790;BMP280;51223;51.816;5.862;2022-08-01T03:49:32;101623.41;;;24.47
64790;BMP280;51223;51.816;5.862;2022-08-01T03:52:01;101625.66;;;24.31
64790;BMP280;51223;51.816;5.862;2022-08-01T03:54:30;101630.81;;;24.16
64790;BMP280;51223;51.816;5.862;2022-08-01T03:56:58;101641.75;;;23.18
64790;BMP280;51223;51.816;5.862;2022-08-01T03:59:25;101639.81;;;23.67
64790;BMP280;51223;51.816;5.862;2022-08-01T04:01:50;101637.06;;;23.47
64790;BMP280;51223;51.816;5.862;2022-08-01T04:04:16;101635.47;;;24.14
64790;BMP280;51223;51.816;5.862;2022-08-01T04:06:42;101633.84;;;24.44
64790;BMP280;51223;51.816;5.862;2022-08-01T04:09:11;101636.72;;;24.44
64790;BMP280;51223;51.816;5.862;2022-08-01T04:11:40;101630.00;;;24.10
64790;BMP280;51223;51.816;5.862;2022-08-01T04:14:06;101630.16;;;24.38
64790;BMP280;51223;51.816;5.862;2022-08-01T04:16:32;101637.63;;;24.78
64790;BMP280;51223;51.816;5.862;2022-08-01T04:18:58;101639.13;;;24.68
64790;BMP280;51223;51.816;5.862;2022-08-01T04:21:26;101633.75;;;24.98
64790;BMP280;51223;51.816;5.862;2022-08-01T04:24:00;101627.59;;;24.03
64790;BMP280;51223;51.816;5.862;2022-08-01T04:26:30;101636.97;;;23.98
64790;BMP280;51223;51.816;5.862;2022-08-01T04:28:58;101640.25;;;24.98
64790;BMP280;51223;51.816;5.862;2022-08-01T04:31:26;101646.84;;;25.26
64790;BMP280;51223;51.816;5.862;2022-08-01T04:33:59;101637.19;;;25.35
64790;BMP280;51223;51.816;5.862;2022-08-01T04:36:28;101641.75;;;24.71
64790;BMP280;51223;51.816;5.862;2022-08-01T04:39:02;101628.59;;;25.41
64790;BMP280;51223;51.816;5.862;2022-08-01T04:41:30;101641.34;;;25.06
64790;BMP280;51223;51.816;5.862;2022-08-01T04:43:57;101645.81;;;25.29
64790;BMP280;51223;51.816;5.862;2022-08-01T04:46:25;101645.00;;;24.37
64790;BMP280;51223;51.816;5.862;2022-08-01T04:48:51;101653.47;;;24.14
64790;BMP280;51223;51.816;5.862;2022-08-01T04:51:18;101670.69;;;23.83
64790;BMP280;51223;51.816;5.862;2022-08-01T04:53:48;101667.78;;;24.14
64790;BMP280;51223;51.816;5.862;2022-08-01T04:56:23;101676.53;;;24.90
64790;BMP280;51223;51.816;5.862;2022-08-01T04:58:51;101673.41;;;24.99
64790;BMP280;51223;51.816;5.862;2022-08-01T05:01:37;101678.06;;;24.80
64790;BMP280;51223;51.816;5.862;2022-08-01T05:04:06;101674.34;;;24.74
64790;BMP280;51223;51.816;5.862;2022-08-01T05:06:34;101677.69;;;24.13
64790;BMP280;51223;51.816;5.862;2022-08-01T05:09:00;101678.31;;;24.82
64790;BMP280;51223;51.816;5.862;2022-08-01T05:14:12;101672.63;;;25.04
64790;BMP280;51223;51.816;5.862;2022-08-01T05:16:37;101674.47;;;24.43
64790;BMP280;51223;51.816;5.862;2022-08-01T05:19:03;101685.38;;;23.65
64790;BMP280;51223;51.816;5.862;2022-08-01T05:21:29;101690.03;;;23.94
64790;BMP280;51223;51.816;5.862;2022-08-01T05:23:58;101680.50;;;24.45
64790;BMP280;51223;51.816;5.862;2022-08-01T05:26:32;101686.00;;;24.54
64790;BMP280;51223;51.816;5.862;2022-08-01T05:29:29;101686.44;;;23.16
64790;BMP280;51223;51.816;5.862;2022-08-01T05:32:08;101679.00;;;24.18
64790;BMP280;51223;51.816;5.862;2022-08-01T05:34:37;101680.66;;;24.78
64790;BMP280;51223;51.816;5.862;2022-08-01T05:37:03;101693.31;;;25.19
64790;BMP280;51223;51.816;5.862;2022-08-01T05:39:29;101686.16;;;24.87
64790;BMP280;51223;51.816;5.862;2022-08-01T05:41:55;101682.88;;;25.39
64790;BMP280;51223;51.816;5.862;2022-08-01T05:44:21;101684.69;;;25.36
64790;BMP280;51223;51.816;5.862;2022-08-01T05:46:56;101694.56;;;25.07
64790;BMP280;51223;51.816;5.862;2022-08-01T05:49:40;101695.19;;;25.67
64790;BMP280;51223;51.816;5.862;2022-08-01T05:52:06;101695.97;;;25.84
64790;BMP280;51223;51.816;5.862;2022-08-01T05:54:47;101695.97;;;24.64
64790;BMP280;51223;51.816;5.862;2022-08-01T05:57:13;101687.50;;;25.08
64790;BMP280;51223;51.816;5.862;2022-08-01T05:59:39;101693.00;;;25.06
64790;BMP280;51223;51.816;5.862;2022-08-01T06:02:04;101691.75;;;24.54
64790;BMP280;51223;51.816;5.862;2022-08-01T06:04:33;101690.41;;;24.44
64790;BMP280;51223;51.816;5.862;2022-08-01T06:06:59;101697.91;;;24.95
64790;BMP280;51223;51.816;5.862;2022-08-01T06:09:25;101702.69;;;25.25
64790;BMP280;51223;51.816;5.862;2022-08-01T06:11:51;101688.03;;;25.12
64790;BMP280;51223;51.816;5.862;2022-08-01T06:14:24;101699.59;;;25.35
64790;BMP280;51223;51.816;5.862;2022-08-01T06:16:52;101699.88;;;25.98
64790;BMP280;51223;51.816;5.862;2022-08-01T06:19:25;101691.25;;;25.81
64790;BMP280;51223;51.816;5.862;2022-08-01T06:21:57;101688.91;;;25.63
64790;BMP280;51223;51.816;5.862;2022-08-01T06:24:22;101694.38;;;25.27
64790;BMP280;51223;51.816;5.862;2022-08-01T06:26:49;101692.84;;;25.54
64790;BMP280;51223;51.816;5.862;2022-08-01T06:29:15;101695.75;;;24.73
64790;BMP280;51223;51.816;5.862;2022-08-01T06:31:44;101696.19;;;25.42
64790;BMP280;51223;51.816;5.862;2022-08-01T06:34:22;101688.38;;;25.81
64790;BMP280;51223;51.816;5.862;2022-08-01T06:36:48;101689.72;;;25.58
64790;BMP280;51223;51.816;5.862;2022-08-01T06:39:26;101687.25;;;25.12
64790;BMP280;51223;51.816;5.862;2022-08-01T06:42:15;101695.53;;;24.88
64790;BMP280;51223;51.816;5.862;2022-08-01T06:44:41;101703.53;;;25.70
64790;BMP280;51223;51.816;5.862;2022-08-01T06:47:07;101701.19;;;25.74
64790;BMP280;51223;51.816;5.862;2022-08-01T06:49:53;101704.84;;;25.80
64790;BMP280;51223;51.816;5.862;2022-08-01T06:52:25;101711.09;;;25.35
64790;BMP280;51223;51.816;5.862;2022-08-01T06:55:06;101715.28;;;25.56
64790;BMP280;51223;51.816;5.862;2022-08-01T07:00:57;101708.94;;;26.29
64790;BMP280;51223;51.816;5.862;2022-08-01T07:03:23;101707.72;;;25.58
64790;BMP280;51223;51.816;5.862;2022-08-01T07:05:49;101713.72;;;25.88
64790;BMP280;51223;51.816;5.862;2022-08-01T07:08:16;101718.94;;;25.73
64790;BMP280;51223;51.816;5.862;2022-08-01T07:10:44;101717.88;;;25.54
64790;BMP280;51223;51.816;5.862;2022-08-01T07:13:09;101717.59;;;25.24
64790;BMP280;51223;51.816;5.862;2022-08-01T07:15:37;101718.38;;;25.24
64790;BMP280;51223;51.816;5.862;2022-08-01T07:18:03;101719.16;;;25.19
64790;BMP280;51223;51.816;5.862;2022-08-01T07:20:32;101720.44;;;26.29
64790;BMP280;51223;51.816;5.862;2022-08-01T07:22:58;101724.69;;;25.78
64790;BMP280;51223;51.816;5.862;2022-08-01T07:25:27;101727.78;;;25.42
64790;BMP280;51223;51.816;5.862;2022-08-01T07:27:58;101729.63;;;25.89
64790;BMP280;51223;51.816;5.862;2022-08-01T07:30:24;101724.44;;;25.71
64790;BMP280;51223;51.816;5.862;2022-08-01T07:32:53;101728.88;;;25.72
64790;BMP280;51223;51.816;5.862;2022-08-01T07:35:31;101727.03;;;26.08
64790;BMP280;51223;51.816;5.862;2022-08-01T07:37:57;101732.91;;;26.54
64790;BMP280;51223;51.816;5.862;2022-08-01T07:40:28;101738.50;;;25.41
64790;BMP280;51223;51.816;5.862;2022-08-01T07:42:54;101728.34;;;25.51
64790;BMP280;51223;51.816;5.862;2022-08-01T07:45:25;101747.69;;;25.95
64790;BMP280;51223;51.816;5.862;2022-08-01T07:47:55;101744.53;;;25.82
64790;BMP280;51223;51.816;5.862;2022-08-01T07:50:21;101753.78;;;24.99
64790;BMP280;51223;51.816;5.862;2022-08-01T07:52:46;101763.88;;;25.65
64790;BMP280;51223;51.816;5.862;2022-08-01T07:55:21;101759.97;;;25.90
64790;BMP280;51223;51.816;5.862;2022-08-01T07:57:47;101757.03;;;25.46
64790;BMP280;51223;51.816;5.862;2022-08-01T08:00:13;101757.59;;;26.16
64790;BMP280;51223;51.816;5.862;2022-08-01T08:02:47;101769.84;;;26.39
64790;BMP280;51223;51.816;5.862;2022-08-01T08:05:21;101767.28;;;25.91
64790;BMP280;51223;51.816;5.862;2022-08-01T08:07:49;101767.00;;;26.34
64790;BMP280;51223;51.816;5.862;2022-08-01T08:10:15;101763.06;;;26.25
64790;BMP280;51223;51.816;5.862;2022-08-01T08:12:41;101771.06;;;26.77
64790;BMP280;51223;51.816;5.862;2022-08-01T08:15:07;101772.06;;;26.85
64790;BMP280;51223;51.816;5.862;2022-08-01T08:17:33;101770.41;;;25.60
64790;BMP280;51223;51.816;5.862;2022-08-01T08:20:06;101774.34;;;26.07
64790;BMP280;51223;51.816;5.862;2022-08-01T08:22:33;101776.97;;;26.10
64790;BMP280;51223;51.816;5.862;2022-08-01T08:24:59;101778.22;;;26.26
64790;BMP280;51223;51.816;5.862;2022-08-01T08:27:25;101781.34;;;26.45
64790;BMP280;51223;51.816;5.862;2022-08-01T08:30:04;101773.03;;;25.63
64790;BMP280;51223;51.816;5.862;2022-08-01T08:32:34;101772.00;;;25.94
64790;BMP280;51223;51.816;5.862;2022-08-01T08:35:00;101780.06;;;26.35
64790;BMP280;51223;51.816;5.862;2022-08-01T08:37:28;101781.34;;;26.45
64790;BMP280;51223;51.816;5.862;2022-08-01T08:40:04;101776.28;;;26.73
64790;BMP280;51223;51.816;5.862;2022-08-01T08:42:30;101779.81;;;25.55
64790;BMP280;51223;51.816;5.862;2022-08-01T08:44:58;101776.94;;;26.27
64790;BMP280;51223;51.816;5.862;2022-08-01T08:47:32;101772.75;;;26.34
64790;BMP280;51223;51.816;5.862;2022-08-01T08:49:59;101784.44;;;25.36
64790;BMP280;51223;51.816;5.862;2022-08-01T08:52:28;101784.03;;;26.04
64790;BMP280;51223;51.816;5.862;2022-08-01T08:54:57;101778.81;;;25.04
64790;BMP280;51223;51.816;5.862;2022-08-01T08:57:23;101780.31;;;25.59
64790;BMP280;51223;51.816;5.862;2022-08-01T08:59:49;101786.13;;;25.98
64790;BMP280;51223;51.816;5.862;2022-08-01T09:02:17;101782.97;;;26.18
64790;BMP280;51223;51.816;5.862;2022-08-01T09:04:51;101790.75;;;26.45
64790;BMP280;51223;51.816;5.862;2022-08-01T09:07:16;101802.03;;;26.15
64790;BMP280;51223;51.816;5.862;2022-08-01T09:09:43;101788.03;;;26.80
64790;BMP280;51223;51.816;5.862;2022-08-01T09:12:16;101784.78;;;26.38
64790;BMP280;51223;51.816;5.862;2022-08-01T09:14:49;101799.41;;;26.28
64790;BMP280;51223;51.816;5.862;2022-08-01T09:17:24;101791.94;;;26.83
64790;BMP280;51223;51.816;5.862;2022-08-01T09:19:53;101796.19;;;26.65
64790;BMP280;51223;51.816;5.862;2022-08-01T09:22:24;101802.00;;;27.23
64790;BMP280;51223;51.816;5.862;2022-08-01T09:25:04;101808.75;;;26.68
64790;BMP280;51223;51.816;5.862;2022-08-01T09:27:33;101808.50;;;27.70
64790;BMP280;51223;51.816;5.862;2022-08-01T09:30:16;101806.19;;;26.48
64790;BMP280;51223;51.816;5.862;2022-08-01T09:33:01;101816.81;;;27.38
64790;BMP280;51223;51.816;5.862;2022-08-01T09:35:31;101815.28;;;26.74
64790;BMP280;51223;51.816;5.862;2022-08-01T09:44:13;101817.75;;;27.11
64790;BMP280;51223;51.816;5.862;2022-08-01T09:46:50;101809.66;;;27.50
64790;BMP280;51223;51.816;5.862;2022-08-01T09:49:41;101822.91;;;27.29
64790;BMP280;51223;51.816;5.862;2022-08-01T09:52:31;101825.19;;;28.61
64790;BMP280;51223;51.816;5.862;2022-08-01T09:55:05;101827.31;;;27.36
64790;BMP280;51223;51.816;5.862;2022-08-01T09:57:54;101823.19;;;27.25
64790;BMP280;51223;51.816;5.862;2022-08-01T10:00:58;101817.19;;;27.12
64790;BMP280;51223;51.816;5.862;2022-08-01T10:06:40;101824.56;;;27.02
64790;BMP280;51223;51.816;5.862;2022-08-01T10:12:03;101835.22;;;26.00
64790;BMP280;51223;51.816;5.862;2022-08-01T10:14:40;101842.47;;;25.56
64790;BMP280;51223;51.816;5.862;2022-08-01T10:17:19;101849.03;;;25.68
64790;BMP280;51223;51.816;5.862;2022-08-01T10:19:55;101837.06;;;26.14
64790;BMP280;51223;51.816;5.862;2022-08-01T10:22:30;101837.75;;;25.53
64790;BMP280;51223;51.816;5.862;2022-08-01T10:24:56;101844.47;;;25.34
64790;BMP280;51223;51.816;5.862;2022-08-01T10:27:32;101849.38;;;25.16
64790;BMP280;51223;51.816;5.862;2022-08-01T10:30:23;101858.09;;;25.50
64790;BMP280;51223;51.816;5.862;2022-08-01T10:32:55;101861.53;;;25.59
64790;BMP280;51223;51.816;5.862;2022-08-01T10:35:23;101861.66;;;25.98
64790;BMP280;51223;51.816;5.862;2022-08-01T10:37:59;101859.78;;;26.28
64790;BMP280;51223;51.816;5.862;2022-08-01T10:40:34;101858.97;;;25.78
64790;BMP280;51223;51.816;5.862;2022-08-01T10:43:01;101860.81;;;25.92
64790;BMP280;51223;51.816;5.862;2022-08-01T10:45:32;101868.34;;;25.62
64790;BMP280;51223;51.816;5.862;2022-08-01T10:50:49;101874.44;;;26.30
64790;BMP280;51223;51.816;5.862;2022-08-01T10:53:16;101868.44;;;26.17
64790;BMP280;51223;51.816;5.862;2022-08-01T10:58:33;101870.81;;;26.36
64790;BMP280;51223;51.816;5.862;2022-08-01T11:05:19;101858.19;;;25.89
64790;BMP280;51223;51.816;5.862;2022-08-01T11:07:37;101864.19;;;26.68
64790;BMP280;51223;51.816;5.862;2022-08-01T11:10:21;101876.78;;;26.65
64790;BMP280;51223;51.816;5.862;2022-08-01T11:12:58;101865.50;;;26.84
64790;BMP280;51223;51.816;5.862;2022-08-01T11:15:26;101861.78;;;27.00
64790;BMP280;51223;51.816;5.862;2022-08-01T11:18:01;101858.50;;;26.35
64790;BMP280;51223;51.816;5.862;2022-08-01T11:20:35;101853.81;;;26.04
64790;BMP280;51223;51.816;5.862;2022-08-01T11:30:45;101865.31;;;26.21
64790;BMP280;51223;51.816;5.862;2022-08-01T11:33:16;101860.47;;;27.01
64790;BMP280;51223;51.816;5.862;2022-08-01T11:44:17;101868.75;;;27.68
64790;BMP280;51223;51.816;5.862;2022-08-01T11:46:56;101856.41;;;26.47
64790;BMP280;51223;51.816;5.862;2022-08-01T11:54:56;101861.47;;;27.09
64790;BMP280;51223;51.816;5.862;2022-08-01T11:57:23;101865.22;;;28.21
64790;BMP280;51223;51.816;5.862;2022-08-01T11:59:51;101865.47;;;27.88
64790;BMP280;51223;51.816;5.862;2022-08-01T12:02:28;101862.16;;;28.14
64790;BMP280;51223;51.816;5.862;2022-08-01T12:05:04;101862.31;;;28.51
64790;BMP280;51223;51.816;5.862;2022-08-01T12:07:34;101864.97;;;28.49
64790;BMP280;51223;51.816;5.862;2022-08-01T12:10:32;101867.81;;;28.25
64790;BMP280;51223;51.816;5.862;2022-08-01T12:13:04;101864.06;;;28.30
64790;BMP280;51223;51.816;5.862;2022-08-01T12:15:32;101871.00;;;27.86
64790;BMP280;51223;51.816;5.862;2022-08-01T12:18:01;101872.81;;;27.54
64790;BMP280;51223;51.816;5.862;2022-08-01T12:20:36;101877.69;;;27.18
64790;BMP280;51223;51.816;5.862;2022-08-01T12:23:16;101869.53;;;28.09
64790;BMP280;51223;51.816;5.862;2022-08-01T12:26:03;101873.31;;;27.93
64790;BMP280;51223;51.816;5.862;2022-08-01T12:28:39;101872.69;;;28.35
64790;BMP280;51223;51.816;5.862;2022-08-01T12:31:08;101866.78;;;27.46
64790;BMP280;51223;51.816;5.862;2022-08-01T12:33:36;101876.53;;;27.38
64790;BMP280;51223;51.816;5.862;2022-08-01T12:36:05;101889.63;;;28.50
64790;BMP280;51223;51.816;5.862;2022-08-01T12:39:03;101875.63;;;28.00
64790;BMP280;51223;51.816;5.862;2022-08-01T12:41:29;101878.00;;;28.02
64790;BMP280;51223;51.816;5.862;2022-08-01T12:44:23;101891.91;;;27.51
64790;BMP280;51223;51.816;5.862;2022-08-01T12:47:25;101884.78;;;28.04
64790;BMP280;51223;51.816;5.862;2022-08-01T12:50:06;101878.81;;;27.97
64790;BMP280;51223;51.816;5.862;2022-08-01T12:52:49;101870.22;;;27.86
64790;BMP280;51223;51.816;5.862;2022-08-01T12:59:19;101872.72;;;28.30
64790;BMP280;51223;51.816;5.862;2022-08-01T13:02:07;101881.47;;;27.89
64790;BMP280;51223;51.816;5.862;2022-08-01T13:05:24;101873.97;;;28.10
64790;BMP280;51223;51.816;5.862;2022-08-01T13:08:09;101879.81;;;29.45
64790;BMP280;51223;51.816;5.862;2022-08-01T13:10:35;101875.00;;;28.91
64790;BMP280;51223;51.816;5.862;2022-08-01T13:13:07;101868.28;;;28.59
64790;BMP280;51223;51.816;5.862;2022-08-01T13:19:14;101852.09;;;29.36
64790;BMP280;51223;51.816;5.862;2022-08-01T14:15:16;101836.81;;;28.55
64790;BMP280;51223;51.816;5.862;2022-08-01T14:34:37;101834.25;;;29.51
64790;BMP280;51223;51.816;5.862;2022-08-01T14:40:39;101836.91;;;28.74
64790;BMP280;51223;51.816;5.862;2022-08-01T14:46:45;101833.59;;;30.61
64790;BMP280;51223;51.816;5.862;2022-08-01T15:19:13;101811.09;;;30.40
64790;BMP280;51223;51.816;5.862;2022-08-01T15:40:27;101811.09;;;30.67
64790;BMP280;51223;51.816;5.862;2022-08-01T15:53:04;101829.31;;;29.96
64790;BMP280;51223;51.816;5.862;2022-08-01T15:55:36;101827.00;;;30.08
64790;BMP280;51223;51.816;5.862;2022-08-01T15:58:02;101830.03;;;30.55
64790;BMP280;51223;51.816;5.862;2022-08-01T16:00:31;101833.81;;;30.76
64790;BMP280;51223;51.816;5.862;2022-08-01T16:02:58;101829.34;;;30.48
64790;BMP280;51223;51.816;5.862;2022-08-01T16:05:23;101827.00;;;30.86
64790;BMP280;51223;51.816;5.862;2022-08-01T16:07:52;101837.69;;;30.26
64790;BMP280;51223;51.816;5.862;2022-08-01T16:10:18;101825.75;;;31.29
64790;BMP280;51223;51.816;5.862;2022-08-01T16:12:43;101821.59;;;31.17
64790;BMP280;51223;51.816;5.862;2022-08-01T16:15:09;101826.31;;;29.70
64790;BMP280;51223;51.816;5.862;2022-08-01T16:17:35;101832.09;;;29.70
64790;BMP280;51223;51.816;5.862;2022-08-01T16:20:04;101831.25;;;31.53
64790;BMP280;51223;51.816;5.862;2022-08-01T16:22:31;101832.38;;;31.91
64790;BMP280;51223;51.816;5.862;2022-08-01T16:24:59;101824.09;;;31.33
64790;BMP280;51223;51.816;5.862;2022-08-01T16:27:25;101827.34;;;30.57
64790;BMP280;51223;51.816;5.862;2022-08-01T16:29:52;101831.22;;;30.85
64790;BMP280;51223;51.816;5.862;2022-08-01T16:32:17;101830.44;;;30.85
64790;BMP280;51223;51.816;5.862;2022-08-01T16:34:43;101838.16;;;30.82
64790;BMP280;51223;51.816;5.862;2022-08-01T16:37:09;101831.75;;;30.97
64790;BMP280;51223;51.816;5.862;2022-08-01T16:39:38;101826.63;;;29.98
64790;BMP280;51223;51.816;5.862;2022-08-01T16:42:06;101830.00;;;30.28
64790;BMP280;51223;51.816;5.862;2022-08-01T16:44:32;101828.66;;;30.16
64790;BMP280;51223;51.816;5.862;2022-08-01T16:47:00;101825.28;;;29.35
64790;BMP280;51223;51.816;5.862;2022-08-01T16:49:26;101827.91;;;29.84
64790;BMP280;51223;51.816;5.862;2022-08-01T16:51:51;101828.66;;;30.69
64790;BMP280;51223;51.816;5.862;2022-08-01T16:54:17;101827.09;;;30.15
64790;BMP280;51223;51.816;5.862;2022-08-01T16:56:46;101825.16;;;30.36
64790;BMP280;51223;51.816;5.862;2022-08-01T16:59:11;101828.00;;;29.78
64790;BMP280;51223;51.816;5.862;2022-08-01T17:01:40;101830.81;;;30.42
64790;BMP280;51223;51.816;5.862;2022-08-01T17:04:06;101833.13;;;30.30
64790;BMP280;51223;51.816;5.862;2022-08-01T17:06:32;101828.66;;;30.16
64790;BMP280;51223;51.816;5.862;2022-08-01T17:08:58;101830.69;;;30.61
64790;BMP280;51223;51.816;5.862;2022-08-01T17:11:23;101836.03;;;30.83
64790;BMP280;51223;51.816;5.862;2022-08-01T17:13:51;101827.13;;;30.81
64790;BMP280;51223;51.816;5.862;2022-08-01T17:16:17;101839.09;;;31.11
64790;BMP280;51223;51.816;5.862;2022-08-01T17:18:43;101827.34;;;30.43
64790;BMP280;51223;51.816;5.862;2022-08-01T17:21:09;101835.56;;;30.13
64790;BMP280;51223;51.816;5.862;2022-08-01T17:23:37;101834.88;;;30.20
64790;BMP280;51223;51.816;5.862;2022-08-01T17:26:03;101843.69;;;30.93
64790;BMP280;51223;51.816;5.862;2022-08-01T17:28:29;101846.13;;;30.11
64790;BMP280;51223;51.816;5.862;2022-08-01T17:30:55;101854.25;;;29.99
64790;BMP280;51223;51.816;5.862;2022-08-01T17:33:21;101854.00;;;29.97
64790;BMP280;51223;51.816;5.862;2022-08-01T17:35:49;101853.41;;;30.70